Time;durP1;ratioP1;P1;durP2;ratioP2;P2;SDS_P1;SDS_P2;PMS_P1;PMS_P2;Temp;Humidity;BMP_temperature;BMP_pressure;BME280_temperature;BME280_humidity;BME280_pressure;Samples;Min_cycle;Max_cycle;Signal;HPM_P1;HPM_P2
2022/07/20 00:01:37;;;;;;;7.22;2.67;;;26.70;50.90;;;;;;5004389;28;20018;-57
2022/07/20 00:04:03;;;;;;;8.90;2.90;;;26.70;50.90;;;;;;5005472;28;20113;-57
2022/07/20 00:06:29;;;;;;;8.40;3.20;;;26.70;50.90;;;;;;5009449;28;20549;-57
2022/07/20 00:11:39;;;;;;;8.73;3.05;;;26.60;51.00;;;;;;5008449;28;20104;-57
2022/07/20 00:14:05;;;;;;;8.15;2.80;;;26.60;51.00;;;;;;4999795;28;20043;-57
2022/07/20 00:16:33;;;;;;;8.82;2.80;;;26.60;51.10;;;;;;5005765;28;20030;-57
2022/07/20 00:18:59;;;;;;;8.18;2.85;;;26.60;51.10;;;;;;5007096;28;20133;-57
2022/07/20 00:21:24;;;;;;;6.72;2.85;;;26.60;51.10;;;;;;5005296;28;20611;-57
2022/07/20 00:23:50;;;;;;;10.60;3.15;;;26.60;51.10;;;;;;5006086;28;20076;-57
2022/07/20 00:26:16;;;;;;;6.97;3.05;;;26.60;51.10;;;;;;5006470;28;20038;-57
2022/07/20 00:28:41;;;;;;;6.32;2.72;;;26.60;51.20;;;;;;5006489;28;20027;-57
2022/07/20 00:31:07;;;;;;;7.85;3.00;;;26.60;51.20;;;;;;5008501;28;20125;-57
2022/07/20 00:33:32;;;;;;;7.03;2.85;;;26.60;51.20;;;;;;5004858;28;20105;-57
2022/07/20 00:35:58;;;;;;;6.80;2.92;;;26.60;51.20;;;;;;5005334;28;20027;-57
2022/07/20 00:38:24;;;;;;;8.05;2.90;;;26.60;51.20;;;;;;5007566;28;20025;-57
2022/07/20 00:40:50;;;;;;;7.38;2.85;;;26.60;51.30;;;;;;5006460;28;20025;-57
2022/07/20 00:43:15;;;;;;;7.70;2.85;;;26.60;51.30;;;;;;5007528;28;20041;-57
2022/07/20 00:45:41;;;;;;;6.82;2.90;;;26.50;51.30;;;;;;5005608;28;20022;-57
2022/07/20 00:48:07;;;;;;;6.15;2.47;;;26.60;51.30;;;;;;5005356;28;20152;-57
2022/07/20 00:50:32;;;;;;;7.63;2.83;;;26.50;51.30;;;;;;5006133;28;20457;-57
2022/07/20 00:52:59;;;;;;;7.88;3.00;;;26.60;51.40;;;;;;5020322;28;20065;-57
2022/07/20 00:55:25;;;;;;;7.38;3.05;;;26.50;51.30;;;;;;5005018;28;20080;-57
2022/07/20 00:57:50;;;;;;;6.82;2.67;;;26.60;51.40;;;;;;5007436;28;20442;-57
2022/07/20 01:00:16;;;;;;;6.60;2.65;;;26.50;51.40;;;;;;5006606;28;20030;-57
2022/07/20 01:02:42;;;;;;;7.28;2.75;;;26.50;51.40;;;;;;5003815;28;20398;-57
2022/07/20 01:05:13;;;;;;;7.85;2.75;;;26.50;51.40;;;;;;5006509;28;20125;-57
2022/07/20 01:07:41;;;;;;;7.43;2.85;;;26.50;51.40;;;;;;5006272;28;20224;-57
2022/07/20 01:10:07;;;;;;;8.75;2.80;;;26.50;52.50;;;;;;5003911;28;20029;-57
2022/07/20 01:12:32;;;;;;;6.63;2.83;;;26.50;51.40;;;;;;5006154;28;20026;-57
2022/07/20 01:14:58;;;;;;;7.63;2.85;;;26.50;51.50;;;;;;5010529;28;20510;-57
2022/07/20 01:17:24;;;;;;;6.82;2.70;;;26.50;51.60;;;;;;5006730;28;20061;-57
2022/07/20 01:19:49;;;;;;;9.13;3.00;;;26.50;51.50;;;;;;5006689;28;20050;-57
2022/07/20 01:22:15;;;;;;;6.45;2.63;;;26.50;51.60;;;;;;5004480;28;20034;-57
2022/07/20 01:24:41;;;;;;;7.30;2.83;;;26.50;51.60;;;;;;5004962;28;20025;-57
2022/07/20 01:27:06;;;;;;;8.43;2.85;;;26.50;51.60;;;;;;5005748;28;20038;-57
2022/07/20 01:29:32;;;;;;;7.53;3.00;;;26.40;51.60;;;;;;5006566;28;20080;-57
2022/07/20 01:31:58;;;;;;;8.25;2.80;;;26.50;51.70;;;;;;5006889;28;20029;-57
2022/07/20 01:34:23;;;;;;;7.43;2.92;;;26.50;51.70;;;;;;5004724;28;20030;-57
2022/07/20 01:36:49;;;;;;;5.32;2.65;;;26.40;51.60;;;;;;5007790;28;20030;-57
2022/07/20 01:39:14;;;;;;;7.50;2.75;;;26.40;51.60;;;;;;5006402;28;20034;-57
2022/07/20 01:41:40;;;;;;;6.90;2.60;;;26.50;51.70;;;;;;5003938;28;20025;-57
2022/07/20 01:44:06;;;;;;;7.07;2.92;;;26.40;51.80;;;;;;5005951;28;20026;-57
2022/07/20 01:46:32;;;;;;;7.30;2.83;;;26.50;51.70;;;;;;5004673;28;20022;-57
2022/07/20 01:48:57;;;;;;;6.70;2.60;;;26.40;51.70;;;;;;5006792;28;20499;-57
2022/07/20 01:51:23;;;;;;;6.47;2.50;;;26.40;51.80;;;;;;5006552;28;20041;-57
2022/07/20 01:53:49;;;;;;;6.15;2.70;;;26.40;51.90;;;;;;5004902;28;20582;-57
2022/07/20 01:56:14;;;;;;;7.18;3.10;;;26.40;51.90;;;;;;5003954;28;20463;-57
2022/07/20 01:58:40;;;;;;;7.43;2.92;;;26.40;51.90;;;;;;5004784;28;20392;-57
2022/07/20 02:01:06;;;;;;;9.02;2.88;;;26.40;51.90;;;;;;5004234;28;20036;-57
2022/07/20 02:03:31;;;;;;;7.32;2.72;;;26.40;51.90;;;;;;5004593;28;20026;-57
2022/07/20 02:05:57;;;;;;;6.68;2.92;;;26.40;51.90;;;;;;5005505;28;20034;-57
2022/07/20 02:08:25;;;;;;;6.13;2.60;;;26.40;51.90;;;;;;5006116;28;20034;-57
2022/07/20 02:10:51;;;;;;;6.80;2.78;;;26.40;52.00;;;;;;5002255;28;20064;-57
2022/07/20 02:13:17;;;;;;;5.38;2.78;;;26.40;52.00;;;;;;5004951;28;20536;-57
2022/07/20 02:18:28;;;;;;;7.07;2.85;;;26.40;52.00;;;;;;5004769;28;20045;-57
2022/07/20 02:20:53;;;;;;;6.55;2.88;;;26.40;52.00;;;;;;5005819;28;20046;-57
2022/07/20 02:23:19;;;;;;;7.13;2.90;;;26.40;52.00;;;;;;5005994;28;20022;-57
2022/07/20 02:25:44;;;;;;;7.68;2.70;;;26.30;52.00;;;;;;5004566;28;20567;-58
2022/07/20 02:28:10;;;;;;;6.88;2.88;;;26.40;52.10;;;;;;5005900;28;20408;-57
2022/07/20 02:30:36;;;;;;;6.53;2.70;;;26.30;52.00;;;;;;5005698;28;20034;-57
2022/07/20 02:33:02;;;;;;;7.00;2.75;;;26.30;52.00;;;;;;5004686;28;20037;-57
2022/07/20 02:35:28;;;;;;;6.65;2.92;;;26.30;52.00;;;;;;5004222;28;20026;-57
2022/07/20 02:37:54;;;;;;;6.68;2.72;;;26.30;52.10;;;;;;5004020;28;20031;-57
2022/07/20 02:40:19;;;;;;;6.50;2.75;;;26.30;52.00;;;;;;5005600;28;20061;-57
2022/07/20 02:42:45;;;;;;;5.35;2.67;;;26.30;52.00;;;;;;5005466;28;20049;-57
2022/07/20 02:45:10;;;;;;;5.50;2.67;;;26.30;52.10;;;;;;5006974;28;20060;-57
2022/07/20 02:47:43;;;;;;;8.75;3.05;;;26.30;52.10;;;;;;5004535;28;20080;-57
2022/07/20 02:50:09;;;;;;;6.40;2.78;;;26.30;52.10;;;;;;5001708;28;20498;-57
2022/07/20 02:52:35;;;;;;;6.57;2.70;;;26.30;52.10;;;;;;5006192;28;20128;-57
2022/07/20 02:55:00;;;;;;;8.10;3.05;;;26.20;52.10;;;;;;5006899;28;20571;-57
2022/07/20 02:57:26;;;;;;;5.53;2.63;;;26.30;52.10;;;;;;5009958;28;20034;-57
2022/07/20 02:59:51;;;;;;;5.95;2.60;;;26.30;52.10;;;;;;5008058;28;20022;-57
2022/07/20 03:02:17;;;;;;;5.65;2.70;;;26.30;52.10;;;;;;5007678;28;20058;-57
2022/07/20 03:04:43;;;;;;;6.55;2.70;;;26.20;52.10;;;;;;5008202;28;20022;-57
2022/07/20 03:07:08;;;;;;;9.73;2.85;;;26.20;52.10;;;;;;5008349;28;20037;-57
2022/07/20 03:09:34;;;;;;;7.22;2.75;;;26.20;52.10;;;;;;5008197;28;20018;-57
2022/07/20 03:11:59;;;;;;;6.55;3.05;;;26.20;52.10;;;;;;5008282;28;20065;-57
2022/07/20 03:14:25;;;;;;;5.30;2.67;;;26.20;52.10;;;;;;5007586;28;20026;-57
2022/07/20 03:16:51;;;;;;;5.82;2.58;;;26.20;52.20;;;;;;5009023;28;20021;-57
2022/07/20 03:19:17;;;;;;;5.65;2.58;;;26.20;52.20;;;;;;5006920;28;20541;-57
2022/07/20 03:21:43;;;;;;;6.15;2.72;;;26.20;52.20;;;;;;5007163;28;20503;-57
2022/07/20 03:24:08;;;;;;;5.78;2.72;;;26.20;52.20;;;;;;5009083;28;20041;-57
2022/07/20 03:26:34;;;;;;;6.88;2.88;;;26.20;52.30;;;;;;5007465;28;20044;-57
2022/07/20 03:29:00;;;;;;;5.25;2.33;;;26.20;52.30;;;;;;5008967;28;20030;-57
2022/07/20 03:31:25;;;;;;;7.43;2.83;;;26.20;52.30;;;;;;5005804;28;20037;-57
2022/07/20 03:33:51;;;;;;;5.68;2.55;;;26.20;52.30;;;;;;5008167;28;20056;-57
2022/07/20 03:36:16;;;;;;;6.85;2.88;;;26.20;52.30;;;;;;5009213;28;20088;-57
2022/07/20 03:38:42;;;;;;;7.50;2.80;;;26.10;52.30;;;;;;5006422;28;20076;-57
2022/07/20 03:41:08;;;;;;;5.85;2.63;;;26.10;52.30;;;;;;5008609;28;20454;-57
2022/07/20 03:43:33;;;;;;;5.53;2.45;;;26.20;52.40;;;;;;5006744;28;20022;-57
2022/07/20 03:45:59;;;;;;;6.53;2.42;;;26.20;52.40;;;;;;5005116;28;20030;-57
2022/07/20 03:48:25;;;;;;;6.82;2.50;;;26.20;52.40;;;;;;5006025;28;20101;-57
2022/07/20 03:50:50;;;;;;;5.95;2.42;;;26.10;52.30;;;;;;5007544;28;20066;-57
2022/07/20 03:53:16;;;;;;;7.53;2.80;;;26.10;52.30;;;;;;5007061;28;20057;-57
2022/07/20 03:55:41;;;;;;;6.93;2.70;;;26.10;52.30;;;;;;5007124;28;20053;-57
2022/07/20 03:58:07;;;;;;;5.50;2.50;;;26.10;52.40;;;;;;5005584;28;20037;-57
2022/07/20 04:00:33;;;;;;;6.95;2.65;;;26.10;52.40;;;;;;5004893;28;20077;-57
2022/07/20 04:02:58;;;;;;;6.05;2.90;;;26.10;52.40;;;;;;5007016;28;20026;-57
2022/07/20 04:05:24;;;;;;;6.00;2.70;;;26.10;52.40;;;;;;5009065;28;20021;-57
2022/07/20 04:07:50;;;;;;;6.60;2.50;;;26.10;52.40;;;;;;5008895;28;20026;-57
2022/07/20 04:10:15;;;;;;;6.85;2.85;;;26.10;52.40;;;;;;5002603;28;20037;-57
2022/07/20 04:12:41;;;;;;;6.30;2.65;;;26.10;52.40;;;;;;5005616;28;20033;-57
2022/07/20 04:15:07;;;;;;;5.72;2.83;;;26.10;52.50;;;;;;5008869;28;20034;-57
2022/07/20 04:17:33;;;;;;;8.38;2.85;;;26.10;52.40;;;;;;5004905;28;20030;-57
2022/07/20 04:19:58;;;;;;;6.68;2.80;;;26.10;52.50;;;;;;5007122;28;20053;-57
2022/07/20 04:22:24;;;;;;;5.40;2.72;;;26.10;52.50;;;;;;5007519;28;20026;-57
2022/07/20 04:24:49;;;;;;;5.97;2.53;;;26.00;52.50;;;;;;5006228;28;20626;-57
2022/07/20 04:27:15;;;;;;;5.50;2.50;;;26.10;52.60;;;;;;5006678;28;20029;-57
2022/07/20 04:29:41;;;;;;;5.38;2.55;;;26.00;52.50;;;;;;5005842;28;20022;-57
2022/07/20 04:32:06;;;;;;;6.15;2.63;;;26.00;52.50;;;;;;5005610;28;20041;-57
2022/07/20 04:34:32;;;;;;;6.72;3.08;;;26.00;52.50;;;;;;5001837;28;20029;-57
2022/07/20 04:36:59;;;;;;;6.53;2.78;;;26.00;52.60;;;;;;5005806;28;20080;-57
2022/07/20 04:39:26;;;;;;;6.18;2.70;;;26.00;52.60;;;;;;5004818;28;20017;-57
2022/07/20 04:41:52;;;;;;;5.57;2.67;;;26.00;52.60;;;;;;5004384;28;20030;-57
2022/07/20 04:44:18;;;;;;;6.95;2.90;;;26.00;52.70;;;;;;5006939;28;20096;-57
2022/07/20 04:46:45;;;;;;;6.80;2.70;;;26.00;53.80;;;;;;5004264;28;20145;-57
2022/07/20 04:49:10;;;;;;;6.78;2.67;;;26.00;52.70;;;;;;5004708;28;20045;-57
2022/07/20 04:51:36;;;;;;;7.00;2.80;;;26.00;52.80;;;;;;5003773;28;20384;-57
2022/07/20 04:54:03;;;;;;;6.28;2.80;;;26.00;52.70;;;;;;5005622;28;20021;-57
2022/07/20 04:56:28;;;;;;;5.28;2.67;;;26.00;52.80;;;;;;5008863;28;20033;-57
2022/07/20 04:58:55;;;;;;;6.47;2.97;;;26.00;52.80;;;;;;5005895;28;20071;-57
2022/07/20 05:01:24;;;;;;;8.02;2.83;;;26.00;52.80;;;;;;5005869;28;20041;-57
2022/07/20 05:03:49;;;;;;;7.53;3.10;;;26.00;53.90;;;;;;5002328;28;20034;-57
2022/07/20 05:06:15;;;;;;;6.85;2.70;;;25.90;52.80;;;;;;5003757;28;20030;-57
2022/07/20 05:08:41;;;;;;;6.15;2.75;;;25.90;52.80;;;;;;5005280;28;20025;-57
2022/07/20 05:11:07;;;;;;;9.43;2.72;;;25.90;52.80;;;;;;5003450;28;20132;-57
2022/07/20 05:13:32;;;;;;;6.53;2.60;;;25.90;52.80;;;;;;5003148;28;20060;-57
2022/07/20 05:15:58;;;;;;;5.88;2.70;;;25.90;52.80;;;;;;5004277;28;20101;-57
2022/07/20 05:18:24;;;;;;;6.75;2.80;;;25.90;52.90;;;;;;5003785;28;20553;-57
2022/07/20 05:20:49;;;;;;;7.78;3.40;;;25.90;52.90;;;;;;5004554;28;20052;-57
2022/07/20 05:23:15;;;;;;;10.48;3.95;;;25.90;53.00;;;;;;5000674;28;20192;-57
2022/07/20 05:25:40;;;;;;;11.68;4.80;;;25.90;52.70;;;;;;5005983;28;20034;-56
2022/07/20 05:28:06;;;;;;;10.85;4.20;;;25.80;52.60;;;;;;5004494;28;20502;-57
2022/07/20 05:30:32;;;;;;;16.45;4.05;;;25.80;52.70;;;;;;5001958;28;20561;-57
2022/07/20 05:32:58;;;;;;;12.00;4.35;;;25.80;52.80;;;;;;5005652;28;20025;-56
2022/07/20 05:35:23;;;;;;;10.18;3.88;;;25.80;52.70;;;;;;5003585;28;20022;-56
2022/07/20 05:37:49;;;;;;;8.90;3.53;;;25.80;52.70;;;;;;5005573;28;20026;-57
2022/07/20 05:40:15;;;;;;;9.50;3.58;;;25.80;52.80;;;;;;5004239;28;20418;-56
2022/07/20 05:42:40;;;;;;;8.30;3.55;;;25.80;52.80;;;;;;5007349;28;20028;-57
2022/07/20 05:45:06;;;;;;;9.05;3.55;;;25.80;52.80;;;;;;5004765;28;20044;-57
2022/07/20 05:47:32;;;;;;;9.77;3.33;;;25.80;52.70;;;;;;5005204;28;20759;-57
2022/07/20 05:49:58;;;;;;;8.02;3.15;;;25.80;52.80;;;;;;5004826;28;20124;-57
2022/07/20 05:52:24;;;;;;;10.50;3.55;;;25.80;52.80;;;;;;5005350;28;20064;-57
2022/07/20 05:54:49;;;;;;;11.93;3.95;;;25.80;52.80;;;;;;5005585;28;20522;-57
2022/07/20 05:57:15;;;;;;;10.38;3.50;;;25.80;52.80;;;;;;5005270;28;20034;-56
2022/07/20 05:59:41;;;;;;;9.88;3.72;;;25.80;52.80;;;;;;5004748;28;20461;-56
2022/07/20 06:02:07;;;;;;;9.68;3.55;;;25.80;52.80;;;;;;5002769;28;20040;-57
2022/07/20 06:04:33;;;;;;;8.77;3.05;;;25.80;52.90;;;;;;5005397;28;20109;-57
2022/07/20 06:06:58;;;;;;;9.20;3.28;;;25.80;52.90;;;;;;5006366;28;20443;-57
2022/07/20 06:09:24;;;;;;;8.98;3.65;;;25.80;52.90;;;;;;5004911;28;20025;-56
2022/07/20 06:11:50;;;;;;;11.35;3.50;;;25.70;52.80;;;;;;5005741;28;20052;-57
2022/07/20 06:14:15;;;;;;;9.98;3.03;;;25.80;52.90;;;;;;5006210;28;20026;-56
2022/07/20 06:16:41;;;;;;;10.20;3.92;;;25.80;52.80;;;;;;5006826;28;20081;-57
2022/07/20 06:19:06;;;;;;;9.35;3.45;;;25.80;52.80;;;;;;5005941;28;20046;-57
2022/07/20 06:21:32;;;;;;;8.07;3.38;;;25.80;52.80;;;;;;5001710;28;20038;-56
2022/07/20 06:23:58;;;;;;;11.77;3.90;;;25.80;52.70;;;;;;5005826;28;20030;-57
2022/07/20 06:26:23;;;;;;;9.48;3.70;;;25.80;52.80;;;;;;5005988;28;20037;-57
2022/07/20 06:28:49;;;;;;;9.68;3.55;;;25.80;52.80;;;;;;5008703;28;20028;-57
2022/07/20 06:31:15;;;;;;;8.40;3.35;;;25.70;52.80;;;;;;5009565;28;20046;-57
2022/07/20 06:33:40;;;;;;;8.18;3.22;;;25.80;52.80;;;;;;5008368;28;20045;-57
2022/07/20 06:36:06;;;;;;;6.72;3.05;;;25.70;52.70;;;;;;5008793;28;20126;-56
2022/07/20 06:38:33;;;;;;;9.20;3.58;;;25.70;52.80;;;;;;5009475;28;20125;-56
2022/07/20 06:40:59;;;;;;;6.88;2.78;;;25.70;52.70;;;;;;5008097;28;20096;-56
2022/07/20 06:43:25;;;;;;;7.00;3.30;;;25.70;52.80;;;;;;5008781;28;20581;-56
2022/07/20 06:45:50;;;;;;;8.88;3.80;;;25.70;52.80;;;;;;5008961;28;20061;-56
2022/07/20 06:48:16;;;;;;;8.93;3.55;;;25.70;52.80;;;;;;5009113;28;20029;-56
2022/07/20 06:50:42;;;;;;;7.68;3.38;;;25.70;52.80;;;;;;5009745;28;20036;-56
2022/07/20 06:53:07;;;;;;;7.82;3.00;;;25.70;52.80;;;;;;5007963;28;20037;-57
2022/07/20 06:55:33;;;;;;;8.45;3.20;;;25.70;52.80;;;;;;5008066;28;20047;-57
2022/07/20 06:57:59;;;;;;;8.63;3.40;;;25.70;52.80;;;;;;5007700;28;20037;-57
2022/07/20 07:00:24;;;;;;;6.85;3.28;;;25.70;52.80;;;;;;5007675;28;20030;-56
2022/07/20 07:02:50;;;;;;;8.50;3.30;;;25.70;52.80;;;;;;5010615;28;20033;-56
2022/07/20 07:05:15;;;;;;;9.32;3.22;;;25.70;52.80;;;;;;5008288;28;20524;-56
2022/07/20 07:07:41;;;;;;;8.18;3.20;;;25.70;52.80;;;;;;5007081;28;20112;-56
2022/07/20 07:10:07;;;;;;;6.53;3.22;;;25.70;52.80;;;;;;5007583;28;20061;-57
2022/07/20 07:12:33;;;;;;;8.27;3.05;;;25.60;52.80;;;;;;5008084;28;20517;-57
2022/07/20 07:14:58;;;;;;;7.47;2.78;;;25.60;52.80;;;;;;5008329;28;20554;-57
2022/07/20 07:17:24;;;;;;;7.78;3.20;;;25.60;52.80;;;;;;5008026;28;20117;-57
2022/07/20 07:19:49;;;;;;;7.47;3.00;;;25.60;52.80;;;;;;5007229;28;20128;-57
2022/07/20 07:22:15;;;;;;;8.52;3.40;;;25.60;52.70;;;;;;5005771;28;20030;-56
2022/07/20 07:24:41;;;;;;;8.50;3.50;;;25.70;52.80;;;;;;5008054;28;20028;-56
2022/07/20 07:27:06;;;;;;;9.85;2.92;;;25.60;52.70;;;;;;5008759;28;20113;-57
2022/07/20 07:29:32;;;;;;;9.07;3.10;;;25.70;52.80;;;;;;5007391;28;20056;-57
2022/07/20 07:32:00;;;;;;;9.27;3.20;;;25.60;52.70;;;;;;5007779;28;20073;-57
2022/07/20 07:34:26;;;;;;;7.25;3.00;;;25.60;52.70;;;;;;5008337;28;20105;-57
2022/07/20 07:36:52;;;;;;;6.68;3.00;;;25.60;52.70;;;;;;5009103;28;20116;-56
2022/07/20 07:39:18;;;;;;;8.63;3.40;;;25.60;52.70;;;;;;5007714;28;20018;-57
2022/07/20 07:41:43;;;;;;;7.85;3.33;;;25.60;52.70;;;;;;5005426;28;20040;-56
2022/07/20 07:44:09;;;;;;;6.22;3.00;;;25.60;52.60;;;;;;5007918;28;20570;-56
2022/07/20 07:46:35;;;;;;;8.50;3.03;;;25.70;52.70;;;;;;5007996;28;20231;-56
2022/07/20 07:49:01;;;;;;;8.88;3.20;;;25.70;52.60;;;;;;5008290;28;20068;-56
2022/07/20 07:51:26;;;;;;;8.25;2.90;;;25.70;52.70;;;;;;5009168;28;20061;-56
2022/07/20 07:53:52;;;;;;;6.40;2.90;;;25.70;52.60;;;;;;5007798;28;20026;-57
2022/07/20 07:56:18;;;;;;;6.97;2.88;;;25.70;52.60;;;;;;5007662;28;20031;-56
2022/07/20 07:58:43;;;;;;;8.07;2.90;;;25.70;52.60;;;;;;5006754;28;20034;-56
2022/07/20 08:01:09;;;;;;;7.30;2.90;;;25.70;52.50;;;;;;5008271;28;20026;-57
2022/07/20 08:03:35;;;;;;;7.38;2.90;;;25.70;52.50;;;;;;5005875;28;20030;-57
2022/07/20 08:06:00;;;;;;;7.43;3.10;;;25.70;52.60;;;;;;5006771;28;20041;-56
2022/07/20 08:08:26;;;;;;;6.85;2.80;;;25.70;52.50;;;;;;5007511;28;20026;-57
2022/07/20 08:10:52;;;;;;;7.82;3.20;;;25.70;52.50;;;;;;5006663;28;20701;-56
2022/07/20 08:13:17;;;;;;;8.75;3.10;;;25.70;52.50;;;;;;5006369;28;20686;-56
2022/07/20 08:15:43;;;;;;;7.63;2.95;;;25.80;52.50;;;;;;5007169;28;20026;-56
2022/07/20 08:18:09;;;;;;;6.88;2.78;;;25.70;52.50;;;;;;5006648;28;20041;-56
2022/07/20 08:20:34;;;;;;;7.32;3.00;;;25.80;52.60;;;;;;5008142;28;20053;-56
2022/07/20 08:23:00;;;;;;;6.35;2.92;;;25.70;52.40;;;;;;5008146;28;20057;-56
2022/07/20 08:25:26;;;;;;;6.93;2.92;;;25.80;52.60;;;;;;5008084;28;20026;-56
2022/07/20 08:27:51;;;;;;;7.88;3.30;;;25.70;52.50;;;;;;5006177;28;20033;-56
2022/07/20 08:30:17;;;;;;;6.78;2.80;;;25.80;52.70;;;;;;5007856;28;20383;-56
2022/07/20 08:32:43;;;;;;;7.78;3.22;;;25.80;52.70;;;;;;5006953;28;20034;-56
2022/07/20 08:35:08;;;;;;;6.43;2.85;;;25.80;52.60;;;;;;5005700;28;20041;-56
2022/07/20 08:37:34;;;;;;;7.63;2.90;;;25.80;52.80;;;;;;5007238;28;20025;-56
2022/07/20 08:40:00;;;;;;;7.18;2.90;;;25.80;52.70;;;;;;5008467;28;20036;-56
2022/07/20 08:42:25;;;;;;;7.20;2.83;;;25.80;52.80;;;;;;5006907;28;20037;-57
2022/07/20 08:44:51;;;;;;;7.38;3.10;;;25.80;52.80;;;;;;5004647;28;20030;-56
2022/07/20 08:47:17;;;;;;;7.43;3.10;;;25.80;52.80;;;;;;5007694;28;20533;-57
2022/07/20 08:49:46;;;;;;;6.93;2.88;;;25.80;52.80;;;;;;5006695;28;20026;-56
2022/07/20 08:52:12;;;;;;;8.07;2.78;;;25.80;53.00;;;;;;5006450;28;20544;-56
2022/07/20 08:54:38;;;;;;;7.00;2.85;;;25.80;52.80;;;;;;5006312;28;20022;-56
2022/07/20 08:57:21;;;;;;;6.35;2.70;;;25.80;52.80;;;;;;5008079;28;20030;-56
2022/07/20 08:59:47;;;;;;;7.20;2.92;;;25.80;52.90;;;;;;5006497;28;20030;-57
2022/07/20 09:02:13;;;;;;;7.32;3.00;;;25.80;52.80;;;;;;5005623;28;20032;-56
2022/07/20 09:04:54;;;;;;;8.20;3.30;;;25.80;52.90;;;;;;5007195;28;20022;-56
2022/07/20 09:07:36;;;;;;;6.68;3.00;;;25.80;52.90;;;;;;5003274;28;20054;-56
2022/07/20 09:10:03;;;;;;;7.38;2.92;;;25.80;53.00;;;;;;5007154;28;20026;-56
2022/07/20 09:12:29;;;;;;;6.78;3.00;;;25.80;52.90;;;;;;5006973;28;20034;-57
2022/07/20 09:14:54;;;;;;;5.55;2.72;;;25.80;53.00;;;;;;5005688;28;20030;-56
2022/07/20 09:17:21;;;;;;;7.07;3.10;;;25.80;52.90;;;;;;5007340;28;20041;-56
2022/07/20 09:20:13;;;;;;;7.28;3.10;;;25.80;53.10;;;;;;5006137;28;20050;-57
2022/07/20 09:22:39;;;;;;;6.70;2.80;;;25.80;52.90;;;;;;5000950;28;20042;-56
2022/07/20 09:25:12;;;;;;;6.32;3.10;;;25.80;52.90;;;;;;5005052;28;20033;-56
2022/07/20 09:27:38;;;;;;;7.13;2.80;;;25.80;54.00;;;;;;5006474;28;20055;-56
2022/07/20 09:30:10;;;;;;;6.80;3.10;;;25.80;53.00;;;;;;5005297;28;20042;-56
2022/07/20 09:32:52;;;;;;;7.97;3.10;;;25.80;53.00;;;;;;5003013;28;20091;-57
2022/07/20 09:35:18;;;;;;;6.93;3.22;;;25.80;53.00;;;;;;5006482;28;20071;-56
2022/07/20 09:37:44;;;;;;;7.38;3.15;;;25.80;53.00;;;;;;5019335;28;20022;-56
2022/07/20 09:40:12;;;;;;;6.38;2.97;;;25.80;53.00;;;;;;5007505;28;20040;-56
2022/07/20 09:42:39;;;;;;;6.45;2.95;;;25.80;53.00;;;;;;5006664;28;20061;-57
2022/07/20 09:45:31;;;;;;;7.30;2.92;;;25.80;53.00;;;;;;5005761;28;20038;-56
2022/07/20 09:48:05;;;;;;;7.28;3.13;;;25.80;53.00;;;;;;5003751;28;20041;-56
2022/07/20 09:50:32;;;;;;;7.57;3.00;;;25.80;53.00;;;;;;5006363;28;20113;-57
2022/07/20 09:52:58;;;;;;;7.63;2.80;;;25.90;53.10;;;;;;5004675;28;20408;-56
2022/07/20 09:55:25;;;;;;;6.97;2.95;;;25.80;53.10;;;;;;5006679;28;20056;-57
2022/07/20 09:57:51;;;;;;;6.25;2.92;;;25.80;53.00;;;;;;5004958;28;20026;-57
2022/07/20 10:00:17;;;;;;;5.88;2.80;;;25.90;53.10;;;;;;5004806;28;20038;-56
2022/07/20 10:02:50;;;;;;;5.60;2.78;;;25.90;53.20;;;;;;5005591;28;20025;-56
2022/07/20 10:05:18;;;;;;;6.68;3.00;;;25.80;53.10;;;;;;5005021;28;20182;-56
2022/07/20 10:07:44;;;;;;;7.55;2.70;;;25.80;53.20;;;;;;5001484;28;20033;-56
2022/07/20 10:10:10;;;;;;;7.28;3.10;;;25.80;53.20;;;;;;5004004;28;20031;-56
2022/07/20 10:12:35;;;;;;;7.45;3.17;;;25.90;53.30;;;;;;5004835;28;20030;-57
2022/07/20 10:15:01;;;;;;;6.82;2.92;;;25.80;53.20;;;;;;5005296;28;20037;-56
2022/07/20 10:17:31;;;;;;;6.10;2.95;;;25.80;53.10;;;;;;5005027;28;20022;-56
2022/07/20 10:19:56;;;;;;;8.23;3.17;;;25.80;54.30;;;;;;5017692;28;20081;-56
2022/07/20 10:22:22;;;;;;;5.80;2.90;;;25.80;53.20;;;;;;5001201;28;20069;-56
2022/07/20 10:25:17;;;;;;;6.13;3.20;;;25.80;53.30;;;;;;5002293;28;20029;-56
2022/07/20 10:27:43;;;;;;;7.75;3.15;;;25.80;53.90;;;;;;5003401;28;20113;-56
2022/07/20 10:30:16;;;;;;;8.82;3.53;;;25.90;53.60;;;;;;5001121;28;20129;-57
2022/07/20 10:32:56;;;;;;;6.60;3.10;;;25.90;54.10;;;;;;5006075;28;20096;-59
2022/07/20 10:35:29;;;;;;;13.45;3.53;;;26.00;54.00;;;;;;5003088;28;20034;-56
2022/07/20 10:37:58;;;;;;;9.00;3.20;;;25.90;54.10;;;;;;5003959;28;20046;-57
2022/07/20 10:40:28;;;;;;;9.13;3.35;;;25.90;54.00;;;;;;5005735;28;20114;-56
2022/07/20 10:43:06;;;;;;;7.05;2.90;;;26.00;54.20;;;;;;5001773;28;20099;-57
2022/07/20 10:45:32;;;;;;;8.43;3.00;;;26.00;54.20;;;;;;5005283;28;20029;-56
2022/07/20 10:48:11;;;;;;;8.98;3.58;;;26.00;54.30;;;;;;5006393;28;20096;-57
2022/07/20 10:50:38;;;;;;;10.07;3.65;;;26.00;54.30;;;;;;5004864;28;20042;-57
2022/07/20 10:53:12;;;;;;;10.38;3.67;;;26.00;54.40;;;;;;5003557;28;20018;-58
2022/07/20 10:55:38;;;;;;;9.00;3.63;;;26.00;54.30;;;;;;5006095;28;20045;-57
2022/07/20 10:58:04;;;;;;;6.78;3.10;;;25.90;54.20;;;;;;5004716;28;20482;-57
2022/07/20 11:00:31;;;;;;;7.68;3.08;;;26.00;54.00;;;;;;5005671;28;20061;-57
2022/07/20 11:02:58;;;;;;;9.40;3.78;;;25.90;54.00;;;;;;5003653;28;20050;-56
2022/07/20 11:05:23;;;;;;;8.68;3.15;;;25.90;54.10;;;;;;5004941;28;20075;-56
2022/07/20 11:07:49;;;;;;;7.72;2.92;;;25.90;54.00;;;;;;5006381;28;20025;-57
2022/07/20 11:10:25;;;;;;;8.27;3.40;;;25.90;54.30;;;;;;5004454;28;20538;-57
2022/07/20 11:12:55;;;;;;;6.80;3.08;;;25.90;54.10;;;;;;5001525;28;20049;-57
2022/07/20 11:15:20;;;;;;;6.68;3.25;;;25.80;54.10;;;;;;5006955;28;20113;-57
2022/07/20 11:17:46;;;;;;;7.57;3.00;;;25.80;54.20;;;;;;5010118;28;20168;-58
2022/07/20 11:20:16;;;;;;;8.13;3.00;;;25.90;54.20;;;;;;5009042;28;20041;-57
2022/07/20 11:22:42;;;;;;;6.05;2.88;;;25.90;54.30;;;;;;5009159;28;20022;-56
2022/07/20 11:25:07;;;;;;;7.30;3.30;;;25.80;54.10;;;;;;5006816;28;20033;-57
2022/07/20 11:27:33;;;;;;;6.63;3.22;;;25.80;54.30;;;;;;5006474;28;20041;-57
2022/07/20 11:29:59;;;;;;;6.80;3.20;;;25.80;54.30;;;;;;5006610;28;20018;-57
2022/07/20 11:32:27;;;;;;;8.90;3.22;;;25.80;54.50;;;;;;5006982;28;20034;-56
2022/07/20 11:34:53;;;;;;;6.55;3.20;;;25.90;54.60;;;;;;5007140;28;20587;-56
2022/07/20 11:37:19;;;;;;;7.80;3.10;;;25.80;54.60;;;;;;5008795;28;20030;-57
2022/07/20 11:39:45;;;;;;;6.65;3.13;;;25.90;54.60;;;;;;5006374;28;20081;-56
2022/07/20 11:42:15;;;;;;;7.45;3.10;;;25.80;54.50;;;;;;5008739;28;20088;-57
2022/07/20 11:44:41;;;;;;;7.63;3.25;;;25.80;54.70;;;;;;5008868;28;20040;-57
2022/07/20 11:47:07;;;;;;;6.15;3.00;;;25.80;54.50;;;;;;5006238;28;20034;-57
2022/07/20 11:49:33;;;;;;;8.18;3.42;;;25.80;54.90;;;;;;5007871;28;20030;-57
2022/07/20 11:52:01;;;;;;;7.85;3.15;;;25.80;54.80;;;;;;5007861;28;20049;-57
2022/07/20 11:54:33;;;;;;;7.32;3.28;;;25.80;54.70;;;;;;5007862;28;20179;-57
2022/07/20 11:56:59;;;;;;;7.72;3.17;;;25.80;54.70;;;;;;5007560;28;20026;-57
2022/07/20 11:59:24;;;;;;;7.88;3.22;;;25.80;54.60;;;;;;5007051;28;20044;-57
2022/07/20 12:01:52;;;;;;;7.30;3.10;;;25.80;54.60;;;;;;5008641;28;20056;-57
2022/07/20 12:04:19;;;;;;;8.23;3.50;;;25.90;54.70;;;;;;5007531;28;20026;-56
2022/07/20 12:06:44;;;;;;;8.27;3.47;;;25.80;54.70;;;;;;5006282;28;20030;-57
2022/07/20 12:09:17;;;;;;;7.93;3.03;;;25.80;54.70;;;;;;5007971;28;20682;-57
2022/07/20 12:11:59;;;;;;;7.78;3.58;;;25.80;54.70;;;;;;5003968;28;20045;-57
2022/07/20 12:14:37;;;;;;;9.38;3.28;;;25.80;54.70;;;;;;5007147;28;20034;-57
2022/07/20 12:17:10;;;;;;;8.65;3.40;;;25.80;54.80;;;;;;5005784;28;20410;-56
2022/07/20 12:19:36;;;;;;;7.88;3.20;;;25.80;54.70;;;;;;5008010;28;20054;-57
2022/07/20 12:22:01;;;;;;;10.98;3.53;;;25.80;54.80;;;;;;5006909;28;20442;-57
2022/07/20 12:24:27;;;;;;;8.40;3.58;;;25.80;54.90;;;;;;5005962;28;20029;-57
2022/07/20 12:27:03;;;;;;;10.25;3.63;;;25.80;54.70;;;;;;5006479;28;20026;-57
2022/07/20 12:29:29;;;;;;;9.25;3.80;;;25.80;54.90;;;;;;5006593;28;20068;-56
2022/07/20 12:32:01;;;;;;;11.07;3.80;;;25.80;54.90;;;;;;5006676;28;20109;-57
2022/07/20 12:34:27;;;;;;;9.10;3.35;;;25.80;55.00;;;;;;5004833;28;20022;-57
2022/07/20 12:36:53;;;;;;;9.75;3.60;;;25.80;54.90;;;;;;5006113;28;20034;-57
2022/07/20 12:39:39;;;;;;;9.05;3.47;;;25.80;55.00;;;;;;5007559;28;20029;-57
2022/07/20 12:42:15;;;;;;;9.48;3.78;;;25.80;54.90;;;;;;5008240;28;20559;-57
2022/07/20 12:44:42;;;;;;;8.13;3.45;;;25.80;54.90;;;;;;5006708;28;20032;-57
2022/07/20 12:47:08;;;;;;;8.85;3.83;;;25.80;54.90;;;;;;5006567;28;20395;-57
2022/07/20 12:49:33;;;;;;;10.23;3.88;;;25.80;54.90;;;;;;5006629;28;20517;-57